Darstellungsparameter: Aktuell verwendete Einstellungen:
Skalierung der Graphiken ... ?
xyx+y,   Skalierungsfaktor:      Skalierung: Modus: x, Faktor: 1
Darstellungszeitraum ... ?
Vom - - bis: - -   Zeitraum: 18.08.2012 - 18.08.2012
Min/Max/Avg-Anzeige ... ?
Zeige MMA aktuell
Zeige MMA Monat
Zeige MMA alles
Zeige --A aktuell
Zeige --A Monat
Zeige --A alles
Keine MMA-Anzeige
MMA:
Keine MMA-Graphiken
MMA-Basis: 18.08.2012 - 18.08.2012
Quicknavigation für Darstellung... ?
Tage:      1T, 2T, 3T, 5T -1T -2T -3T -5T +1T +2T +3T +5T
Wochen: 1W, 2W, 3W -1W -2W -3W +1W +2W +3W
Monate: 1M, 3M, 6M -1M -3M -6M +1M +3M +6M
Jahre:    1J, 3J, 5J, 10J -1J -3J -5J -10J +1J +3J +5J +10J
Nutze für die Darstellung ... ?
Originaldaten oder Mittelwerte auf ...
Stundenbasis Tagesbasis Wochenbasis
Monatsbasis Jahresbasis      Datenbasis: Original-Daten
Darstellen als:
Statistik (Auto) Statistik J:M      Darstellung:
Zur Graphik,    zurück zur Übersicht aller Sensoren.
 
Tabellarische Datenbersicht: ?
 
Sensor: Nr:Datum:Temp:Abs-Feuchte:Windchill:Wind:
Aussen-T/F 1 18-08-2012 00:00:00 18.8 C 12.24 g/m*3 18.8 C 3.2 km/h
2 18-08-2012 00:05:00 18.8 C 12.4 g/m*3 18.8 C 3.2 km/h
3 18-08-2012 00:10:00 18.7 C 12.33 g/m*3 18.7 C 3.2 km/h
4 18-08-2012 00:15:00 18.7 C 12.33 g/m*3 18.7 C 3.2 km/h
5 18-08-2012 00:20:00 18.7 C 12.33 g/m*3 18.7 C 3.2 km/h
6 18-08-2012 00:25:00 18.6 C 12.26 g/m*3 18.6 C 1.6 km/h
7 18-08-2012 00:30:00 18.6 C 12.41 g/m*3 18.6 C 0 km/h
8 18-08-2012 00:35:00 18.6 C 12.41 g/m*3 18.6 C 0 km/h
9 18-08-2012 00:40:00 18.6 C 12.41 g/m*3 18.6 C 0 km/h
10 18-08-2012 00:45:00 18.6 C 12.41 g/m*3 18.6 C 0 km/h
11 18-08-2012 00:50:00 18.5 C 12.34 g/m*3 18.5 C 0 km/h
12 18-08-2012 00:55:00 18.4 C 12.43 g/m*3 18.4 C 0 km/h
13 18-08-2012 01:00:00 18.3 C 12.35 g/m*3 18.3 C 0 km/h
14 18-08-2012 01:05:00 18.1 C 12.21 g/m*3 18.1 C 0 km/h
15 18-08-2012 01:10:00 17.9 C 12.06 g/m*3 17.9 C 0 km/h
16 18-08-2012 01:15:00 17.8 C 12.29 g/m*3 17.8 C 0 km/h
17 18-08-2012 01:20:00 17.7 C 12.22 g/m*3 17.7 C 0 km/h
18 18-08-2012 01:25:00 17.6 C 12 g/m*3 17.6 C 1.6 km/h
19 18-08-2012 01:30:00 17.5 C 12.08 g/m*3 17.5 C 3.2 km/h
20 18-08-2012 01:35:00 17.4 C 12 g/m*3 17.4 C 1.6 km/h
21 18-08-2012 01:40:00 17.3 C 12.08 g/m*3 17.3 C 0 km/h
22 18-08-2012 01:45:00 17.2 C 12.01 g/m*3 17.2 C 0 km/h
23 18-08-2012 01:50:00 17.2 C 11.86 g/m*3 17.2 C 0 km/h
24 18-08-2012 01:55:00 17.2 C 12.15 g/m*3 17.2 C 1.6 km/h
25 18-08-2012 02:00:00 17.2 C 12.15 g/m*3 17.2 C 0 km/h
Sensor: Nr:Datum:Temp:Abs-Feuchte:Windchill:Wind:
Aussen-T/F 26 18-08-2012 02:05:00 17.1 C 11.94 g/m*3 17.1 C 3.2 km/h
27 18-08-2012 02:10:00 17.1 C 12.08 g/m*3 17.1 C 3.2 km/h
28 18-08-2012 02:15:00 17.1 C 12.08 g/m*3 17.1 C 0 km/h
29 18-08-2012 02:20:00 17 C 12.01 g/m*3 17 C 0 km/h
30 18-08-2012 02:25:00 16.9 C 11.94 g/m*3 16.9 C 0 km/h
31 18-08-2012 02:30:00 16.8 C 12.01 g/m*3 16.8 C 0 km/h
32 18-08-2012 02:35:00 16.7 C 12.08 g/m*3 16.7 C 0 km/h
33 18-08-2012 02:40:00 16.6 C 12.01 g/m*3 16.6 C 0 km/h
34 18-08-2012 02:45:00 16.6 C 12.01 g/m*3 16.6 C 0 km/h
35 18-08-2012 02:50:00 16.5 C 11.8 g/m*3 16.5 C 0 km/h
36 18-08-2012 02:55:00 16.4 C 11.86 g/m*3 16.4 C 0 km/h
37 18-08-2012 03:00:00 16.3 C 11.79 g/m*3 16.3 C 0 km/h
38 18-08-2012 03:05:00 16.2 C 11.86 g/m*3 16.2 C 0 km/h
39 18-08-2012 03:10:00 16.2 C 11.86 g/m*3 16.2 C 0 km/h
40 18-08-2012 03:15:00 16.1 C 11.79 g/m*3 16.1 C 0 km/h
41 18-08-2012 03:20:00 16 C 11.72 g/m*3 16 C 0 km/h
42 18-08-2012 03:25:00 15.9 C 11.78 g/m*3 15.9 C 0 km/h
43 18-08-2012 03:30:00 15.9 C 11.78 g/m*3 15.9 C 0 km/h
44 18-08-2012 03:35:00 15.9 C 11.78 g/m*3 15.9 C 0 km/h
45 18-08-2012 03:40:00 15.8 C 11.71 g/m*3 15.8 C 0 km/h
46 18-08-2012 03:45:00 15.8 C 11.71 g/m*3 15.8 C 0 km/h
47 18-08-2012 03:50:00 15.8 C 11.71 g/m*3 15.8 C 0 km/h
48 18-08-2012 03:55:00 15.8 C 11.71 g/m*3 15.8 C 0 km/h
49 18-08-2012 04:00:00 15.7 C 11.64 g/m*3 15.7 C 0 km/h
50 18-08-2012 04:05:00 15.7 C 11.77 g/m*3 15.7 C 0 km/h
Sensor: Nr:Datum:Temp:Abs-Feuchte:Windchill:Wind:
Aussen-T/F 51 18-08-2012 04:10:00 15.6 C 11.7 g/m*3 15.6 C 0 km/h
52 18-08-2012 04:15:00 15.6 C 11.7 g/m*3 15.6 C 0 km/h
53 18-08-2012 04:20:00 15.5 C 11.63 g/m*3 15.5 C 0 km/h
54 18-08-2012 04:25:00 15.4 C 11.69 g/m*3 15.4 C 0 km/h
55 18-08-2012 04:30:00 15.3 C 11.62 g/m*3 15.3 C 0 km/h
56 18-08-2012 04:35:00 15.3 C 11.62 g/m*3 15.3 C 0 km/h
57 18-08-2012 04:40:00 15.3 C 11.75 g/m*3 15.3 C 0 km/h
58 18-08-2012 04:45:00 15.2 C 11.68 g/m*3 15.2 C 0 km/h
59 18-08-2012 04:50:00 15.2 C 11.68 g/m*3 15.2 C 0 km/h
60 18-08-2012 04:55:00 15.2 C 11.68 g/m*3 15.2 C 0 km/h
61 18-08-2012 05:00:00 15.2 C 11.68 g/m*3 15.2 C 0 km/h
62 18-08-2012 05:05:00 15.2 C 11.68 g/m*3 15.2 C 0 km/h
63 18-08-2012 05:10:00 15.1 C 11.61 g/m*3 15.1 C 0 km/h
64 18-08-2012 05:15:00 15 C 11.54 g/m*3 15 C 0 km/h
65 18-08-2012 05:20:00 15 C 11.54 g/m*3 15 C 0 km/h
66 18-08-2012 05:25:00 14.9 C 11.47 g/m*3 14.9 C 0 km/h
67 18-08-2012 05:30:00 14.9 C 11.6 g/m*3 14.9 C 0 km/h
68 18-08-2012 05:35:00 14.8 C 11.53 g/m*3 14.8 C 0 km/h
69 18-08-2012 05:40:00 14.7 C 11.46 g/m*3 14.7 C 0 km/h
70 18-08-2012 05:45:00 14.7 C 11.46 g/m*3 14.7 C 0 km/h
71 18-08-2012 05:50:00 14.7 C 11.46 g/m*3 14.7 C 0 km/h
72 18-08-2012 05:55:00 14.6 C 11.39 g/m*3 14.6 C 0 km/h
73 18-08-2012 06:00:00 14.6 C 11.51 g/m*3 14.6 C 0 km/h
74 18-08-2012 06:05:00 14.6 C 11.51 g/m*3 14.6 C 0 km/h
75 18-08-2012 06:10:00 14.6 C 11.51 g/m*3 14.6 C 0 km/h
Sensor: Nr:Datum:Temp:Abs-Feuchte:Windchill:Wind:
Aussen-T/F 76 18-08-2012 06:15:00 14.5 C 11.44 g/m*3 14.5 C 0 km/h
77 18-08-2012 06:20:00 14.5 C 11.44 g/m*3 14.5 C 0 km/h
78 18-08-2012 06:25:00 14.5 C 11.44 g/m*3 14.5 C 0 km/h
79 18-08-2012 06:30:00 14.5 C 11.44 g/m*3 14.5 C 1.6 km/h
80 18-08-2012 06:35:00 14.5 C 11.57 g/m*3 14.5 C 0 km/h
81 18-08-2012 06:40:00 14.5 C 11.44 g/m*3 14.5 C 0 km/h
82 18-08-2012 06:45:00 14.4 C 11.37 g/m*3 14.4 C 0 km/h
83 18-08-2012 06:50:00 14.4 C 11.5 g/m*3 14.4 C 0 km/h
84 18-08-2012 06:55:00 14.5 C 11.57 g/m*3 14.5 C 0 km/h
85 18-08-2012 07:00:00 14.5 C 11.57 g/m*3 14.5 C 0 km/h
86 18-08-2012 07:05:00 14.5 C 11.57 g/m*3 14.5 C 0 km/h
87 18-08-2012 07:10:00 14.6 C 11.64 g/m*3 14.6 C 0 km/h
88 18-08-2012 07:15:00 14.6 C 11.64 g/m*3 14.6 C 0 km/h
89 18-08-2012 07:20:00 14.6 C 11.64 g/m*3 14.6 C 0 km/h
90 18-08-2012 07:25:00 14.6 C 11.64 g/m*3 14.6 C 0 km/h
91 18-08-2012 07:30:00 14.6 C 11.64 g/m*3 14.6 C 0 km/h
92 18-08-2012 07:35:00 14.7 C 11.71 g/m*3 14.7 C 0 km/h
93 18-08-2012 07:40:00 14.7 C 11.71 g/m*3 14.7 C 0 km/h
94 18-08-2012 07:45:00 14.7 C 11.71 g/m*3 14.7 C 0 km/h
95 18-08-2012 07:50:00 14.7 C 11.71 g/m*3 14.7 C 0 km/h
96 18-08-2012 07:55:00 14.7 C 11.71 g/m*3 14.7 C 0 km/h
97 18-08-2012 08:00:00 14.8 C 11.78 g/m*3 14.8 C 0 km/h
98 18-08-2012 08:05:00 14.9 C 11.85 g/m*3 14.9 C 0 km/h
99 18-08-2012 08:10:00 14.9 C 11.85 g/m*3 14.9 C 0 km/h
100 18-08-2012 08:15:00 15 C 11.93 g/m*3 15 C 0 km/h
Sensor: Nr:Datum:Temp:Abs-Feuchte:Windchill:Wind:
Aussen-T/F 101 18-08-2012 08:20:00 15.1 C 12 g/m*3 15.1 C 1.6 km/h
102 18-08-2012 08:25:00 15.2 C 12.07 g/m*3 15.2 C 0 km/h
103 18-08-2012 08:30:00 15.3 C 12.14 g/m*3 15.3 C 0 km/h
104 18-08-2012 08:35:00 15.4 C 12.09 g/m*3 15.4 C 1.6 km/h
105 18-08-2012 08:40:00 15.6 C 12.23 g/m*3 15.6 C 1.6 km/h
106 18-08-2012 08:45:00 15.7 C 12.31 g/m*3 15.7 C 1.6 km/h
107 18-08-2012 08:50:00 15.9 C 12.46 g/m*3 15.9 C 1.6 km/h
108 18-08-2012 08:55:00 16 C 12.53 g/m*3 16 C 1.6 km/h
109 18-08-2012 09:00:00 16.2 C 12.55 g/m*3 16.2 C 0 km/h
110 18-08-2012 09:05:00 16.3 C 12.62 g/m*3 16.3 C 1.6 km/h
111 18-08-2012 09:10:00 16.6 C 12.57 g/m*3 16.6 C 1.6 km/h
112 18-08-2012 09:15:00 16.9 C 12.66 g/m*3 16.9 C 1.6 km/h
113 18-08-2012 09:20:00 17.2 C 12.89 g/m*3 17.2 C 0 km/h
114 18-08-2012 09:25:00 17.4 C 12.89 g/m*3 17.4 C 0 km/h
115 18-08-2012 09:30:00 17.7 C 13.13 g/m*3 17.7 C 1.6 km/h
116 18-08-2012 09:35:00 17.8 C 13.05 g/m*3 17.8 C 3.2 km/h
117 18-08-2012 09:40:00 17.9 C 12.98 g/m*3 17.9 C 1.6 km/h
118 18-08-2012 09:45:00 18.2 C 13.37 g/m*3 18.2 C 3.2 km/h
119 18-08-2012 09:50:00 18.3 C 13.29 g/m*3 18.3 C 3.2 km/h
120 18-08-2012 09:55:00 18.6 C 13.53 g/m*3 18.6 C 3.2 km/h
121 18-08-2012 10:00:00 18.9 C 13.45 g/m*3 18.9 C 3.2 km/h
122 18-08-2012 10:05:00 19.1 C 13.28 g/m*3 19.1 C 3.2 km/h
123 18-08-2012 10:10:00 19.2 C 13.69 g/m*3 19.2 C 3.2 km/h
124 18-08-2012 10:15:00 19.3 C 13.77 g/m*3 19.3 C 1.6 km/h
125 18-08-2012 10:20:00 19.3 C 13.6 g/m*3 19.3 C 3.2 km/h
Sensor: Nr:Datum:Temp:Abs-Feuchte:Windchill:Wind:
Aussen-T/F 126 18-08-2012 10:25:00 19.5 C 13.76 g/m*3 19.5 C 3.2 km/h
127 18-08-2012 10:30:00 19.6 C 14.01 g/m*3 19.6 C 3.2 km/h
128 18-08-2012 10:35:00 19.7 C 14.09 g/m*3 19.7 C 3.2 km/h
129 18-08-2012 10:40:00 20.1 C 14.25 g/m*3 20.1 C 3.2 km/h
130 18-08-2012 10:45:00 20.2 C 14.16 g/m*3 20.2 C 1.6 km/h
131 18-08-2012 10:50:00 20.3 C 14.42 g/m*3 20.3 C 3.2 km/h
132 18-08-2012 10:55:00 20.6 C 14.68 g/m*3 20.6 C 3.2 km/h
133 18-08-2012 11:00:00 20.8 C 14.49 g/m*3 20.8 C 3.2 km/h
134 18-08-2012 11:05:00 21.8 C 14.01 g/m*3 21.8 C 6.4 km/h
135 18-08-2012 11:10:00 21.9 C 14.67 g/m*3 21.9 C 3.2 km/h
136 18-08-2012 11:15:00 22.4 C 15.29 g/m*3 22.4 C 3.2 km/h
137 18-08-2012 11:20:00 24.2 C 14.96 g/m*3 24.2 C 6.4 km/h
138 18-08-2012 11:25:00 24.3 C 14.61 g/m*3 24.3 C 3.2 km/h
139 18-08-2012 11:30:00 24.3 C 15.05 g/m*3 24.3 C 3.2 km/h
140 18-08-2012 11:35:00 24.4 C 15.13 g/m*3 24.4 C 4.8 km/h
141 18-08-2012 11:40:00 24.4 C 15.13 g/m*3 24.4 C 1.6 km/h
142 18-08-2012 11:45:00 25.1 C 14.12 g/m*3 25.1 C 8.1 km/h
143 18-08-2012 11:50:00 25.9 C 14.77 g/m*3 25.9 C 6.4 km/h
144 18-08-2012 11:55:00 26.3 C 14.11 g/m*3 26.3 C 6.4 km/h
145 18-08-2012 12:00:00 26.1 C 13.46 g/m*3 26.1 C 8.1 km/h
146 18-08-2012 12:05:00 25.9 C 13.32 g/m*3 25.9 C 4.8 km/h
147 18-08-2012 12:10:00 26.3 C 15.1 g/m*3 26.3 C 6.4 km/h
148 18-08-2012 12:15:00 26.2 C 15.02 g/m*3 26.2 C 8.1 km/h
149 18-08-2012 12:20:00 27.6 C 13.3 g/m*3 27.6 C 9.7 km/h
150 18-08-2012 12:25:00 27.6 C 14.9 g/m*3 27.6 C 4.8 km/h
Sensor: Nr:Datum:Temp:Abs-Feuchte:Windchill:Wind:
Aussen-T/F 151 18-08-2012 12:30:00 27.8 C 13.18 g/m*3 27.8 C 6.4 km/h
152 18-08-2012 12:35:00 28.7 C 12.72 g/m*3 28.7 C 4.8 km/h
153 18-08-2012 12:40:00 28.8 C 13.07 g/m*3 28.8 C 6.4 km/h
154 18-08-2012 12:45:00 29.2 C 13.07 g/m*3 29.2 C 6.4 km/h
155 18-08-2012 12:50:00 29.2 C 13.07 g/m*3 29.2 C 3.2 km/h
156 18-08-2012 12:55:00 29.6 C 12.46 g/m*3 29.6 C 8.1 km/h
157 18-08-2012 13:00:00 30.2 C 12.26 g/m*3 30.2 C 4.8 km/h
158 18-08-2012 13:05:00 30.7 C 12.6 g/m*3 30.7 C 8.1 km/h
159 18-08-2012 13:10:00 29.4 C 13.21 g/m*3 29.4 C 6.4 km/h
160 18-08-2012 13:15:00 30.3 C 12.64 g/m*3 30.3 C 8.1 km/h
161 18-08-2012 13:20:00 30.5 C 13.08 g/m*3 30.5 C 4.8 km/h
162 18-08-2012 13:25:00 30.6 C 12.84 g/m*3 30.6 C 4.8 km/h
163 18-08-2012 13:30:00 31.2 C 12.62 g/m*3 31.2 C 4.8 km/h
164 18-08-2012 13:35:00 31.3 C 12.68 g/m*3 31.3 C 6.4 km/h
165 18-08-2012 13:40:00 31 C 14.4 g/m*3 31 C 4.8 km/h
166 18-08-2012 13:45:00 31.1 C 13.19 g/m*3 31.1 C 11.3 km/h
167 18-08-2012 13:50:00 31.3 C 13.66 g/m*3 31.3 C 11.3 km/h
168 18-08-2012 13:55:00 31.2 C 13.26 g/m*3 31.2 C 4.8 km/h
169 18-08-2012 14:00:00 31.6 C 12.23 g/m*3 31.6 C 11.3 km/h
170 18-08-2012 14:05:00 31.5 C 12.49 g/m*3 31.5 C 6.4 km/h
171 18-08-2012 14:10:00 31.8 C 13.36 g/m*3 31.8 C 4.8 km/h
172 18-08-2012 14:15:00 31.9 C 13.1 g/m*3 31.9 C 6.4 km/h
173 18-08-2012 14:20:00 32.6 C 12.9 g/m*3 32.6 C 4.8 km/h
174 18-08-2012 14:25:00 32.3 C 13.38 g/m*3 32.3 C 8.1 km/h
175 18-08-2012 14:30:00 32.2 C 12.28 g/m*3 32.2 C 6.4 km/h
Sensor: Nr:Datum:Temp:Abs-Feuchte:Windchill:Wind:
Aussen-T/F 176 18-08-2012 14:35:00 32.3 C 12.69 g/m*3 32.3 C 6.4 km/h
177 18-08-2012 14:40:00 32.6 C 12.55 g/m*3 32.6 C 4.8 km/h
178 18-08-2012 14:45:00 32.3 C 13.03 g/m*3 32.3 C 6.4 km/h
179 18-08-2012 14:50:00 32.5 C 12.48 g/m*3 32.5 C 4.8 km/h
180 18-08-2012 14:55:00 32.5 C 12.48 g/m*3 32.5 C 6.4 km/h
181 18-08-2012 15:00:00 32.6 C 12.2 g/m*3 32.6 C 8.1 km/h
182 18-08-2012 15:05:00 32.5 C 13.17 g/m*3 32.5 C 6.4 km/h
183 18-08-2012 15:10:00 33.2 C 13.67 g/m*3 33.2 C 4.8 km/h
184 18-08-2012 15:15:00 33.1 C 13.24 g/m*3 33.1 C 9.7 km/h
185 18-08-2012 15:20:00 32.8 C 12.33 g/m*3 32.8 C 9.7 km/h
186 18-08-2012 15:25:00 33 C 13.17 g/m*3 33 C 8.1 km/h
187 18-08-2012 15:30:00 33.3 C 12.66 g/m*3 33.3 C 6.4 km/h
188 18-08-2012 15:35:00 33.2 C 12.59 g/m*3 33.2 C 9.7 km/h
189 18-08-2012 15:40:00 32.9 C 12.39 g/m*3 32.9 C 8.1 km/h
190 18-08-2012 15:45:00 32.9 C 14.16 g/m*3 32.9 C 6.4 km/h
191 18-08-2012 15:50:00 33.1 C 12.88 g/m*3 33.1 C 6.4 km/h
192 18-08-2012 15:55:00 33.3 C 13.38 g/m*3 33.3 C 8.1 km/h
193 18-08-2012 16:00:00 33 C 12.46 g/m*3 33 C 8.1 km/h
194 18-08-2012 16:05:00 33.1 C 12.53 g/m*3 33.1 C 8.1 km/h
195 18-08-2012 16:10:00 33.8 C 14.11 g/m*3 33.8 C 4.8 km/h
196 18-08-2012 16:15:00 33.7 C 12.19 g/m*3 33.7 C 6.4 km/h
197 18-08-2012 16:20:00 33.5 C 12.43 g/m*3 33.5 C 9.7 km/h
198 18-08-2012 16:25:00 34.3 C 12.58 g/m*3 34.3 C 6.4 km/h
199 18-08-2012 16:30:00 34.3 C 12.58 g/m*3 34.3 C 8.1 km/h
200 18-08-2012 16:35:00 33.9 C 12.32 g/m*3 33.9 C 8.1 km/h
Sensor: Nr:Datum:Temp:Abs-Feuchte:Windchill:Wind:
Aussen-T/F 201 18-08-2012 16:40:00 33.9 C 12.69 g/m*3 33.9 C 8.1 km/h
202 18-08-2012 16:45:00 34.1 C 12.45 g/m*3 34.1 C 8.1 km/h
203 18-08-2012 16:50:00 33.8 C 12.62 g/m*3 33.8 C 8.1 km/h
204 18-08-2012 16:55:00 34.1 C 12.45 g/m*3 34.1 C 6.4 km/h
205 18-08-2012 17:00:00 34 C 12.38 g/m*3 34 C 6.4 km/h
206 18-08-2012 17:05:00 34.2 C 13.27 g/m*3 34.2 C 6.4 km/h
207 18-08-2012 17:10:00 34.1 C 12.45 g/m*3 34.1 C 6.4 km/h
208 18-08-2012 17:15:00 34 C 14.26 g/m*3 34 C 11.3 km/h
209 18-08-2012 17:20:00 33.5 C 12.06 g/m*3 33.5 C 8.1 km/h
210 18-08-2012 17:25:00 34.1 C 12.82 g/m*3 34.1 C 4.8 km/h
211 18-08-2012 17:30:00 34 C 12.38 g/m*3 34 C 4.8 km/h
212 18-08-2012 17:35:00 34.1 C 12.82 g/m*3 34.1 C 6.4 km/h
213 18-08-2012 17:40:00 34.4 C 13.41 g/m*3 34.4 C 3.2 km/h
214 18-08-2012 17:45:00 34.7 C 13.23 g/m*3 34.7 C 4.8 km/h
215 18-08-2012 17:50:00 34.3 C 12.58 g/m*3 34.3 C 4.8 km/h
216 18-08-2012 17:55:00 34.3 C 12.58 g/m*3 34.3 C 4.8 km/h
217 18-08-2012 18:00:00 34.4 C 13.03 g/m*3 34.4 C 6.4 km/h
218 18-08-2012 18:05:00 34.4 C 12.64 g/m*3 34.4 C 6.4 km/h
219 18-08-2012 18:10:00 34.3 C 12.58 g/m*3 34.3 C 4.8 km/h
220 18-08-2012 18:15:00 34.3 C 12.58 g/m*3 34.3 C 4.8 km/h
221 18-08-2012 18:20:00 34.1 C 13.96 g/m*3 34.1 C 4.8 km/h
222 18-08-2012 18:25:00 33.7 C 13.3 g/m*3 33.7 C 8.1 km/h
223 18-08-2012 18:30:00 33.5 C 14.25 g/m*3 33.5 C 6.4 km/h
224 18-08-2012 18:35:00 33 C 14.59 g/m*3 33 C 3.2 km/h
225 18-08-2012 18:40:00 32.9 C 14.87 g/m*3 32.9 C 3.2 km/h
Sensor: Nr:Datum:Temp:Abs-Feuchte:Windchill:Wind:
Aussen-T/F 226 18-08-2012 18:45:00 32.3 C 14.06 g/m*3 32.3 C 1.6 km/h
227 18-08-2012 18:50:00 31.6 C 15.2 g/m*3 31.6 C 3.2 km/h
228 18-08-2012 18:55:00 31.2 C 15.2 g/m*3 31.2 C 3.2 km/h
229 18-08-2012 19:00:00 30.8 C 15.2 g/m*3 30.8 C 3.2 km/h
230 18-08-2012 19:05:00 30.4 C 14.87 g/m*3 30.4 C 4.8 km/h
231 18-08-2012 19:10:00 29.9 C 15.08 g/m*3 29.9 C 3.2 km/h
232 18-08-2012 19:15:00 29.6 C 15.13 g/m*3 29.6 C 3.2 km/h
233 18-08-2012 19:20:00 29.1 C 14.73 g/m*3 29.1 C 4.8 km/h
234 18-08-2012 19:25:00 28.7 C 14.98 g/m*3 28.7 C 4.8 km/h
235 18-08-2012 19:30:00 28.4 C 14.73 g/m*3 28.4 C 3.2 km/h
236 18-08-2012 19:35:00 28.3 C 14.65 g/m*3 28.3 C 4.8 km/h
237 18-08-2012 19:40:00 28.1 C 14.77 g/m*3 28.1 C 4.8 km/h
238 18-08-2012 19:45:00 27.8 C 14.52 g/m*3 27.8 C 4.8 km/h
239 18-08-2012 19:50:00 27.4 C 14.73 g/m*3 27.4 C 4.8 km/h
240 18-08-2012 19:55:00 27.2 C 14.57 g/m*3 27.2 C 3.2 km/h
241 18-08-2012 20:00:00 26.9 C 14.59 g/m*3 26.9 C 4.8 km/h
242 18-08-2012 20:05:00 26.7 C 14.68 g/m*3 26.7 C 4.8 km/h
243 18-08-2012 20:10:00 26.4 C 14.69 g/m*3 26.4 C 4.8 km/h
244 18-08-2012 20:15:00 26.2 C 14.52 g/m*3 26.2 C 4.8 km/h
245 18-08-2012 20:20:00 25.9 C 14.53 g/m*3 25.9 C 3.2 km/h
246 18-08-2012 20:25:00 25.6 C 14.28 g/m*3 25.6 C 4.8 km/h
247 18-08-2012 20:30:00 25.3 C 14.28 g/m*3 25.3 C 4.8 km/h
248 18-08-2012 20:35:00 25.1 C 14.12 g/m*3 25.1 C 4.8 km/h
249 18-08-2012 20:40:00 24.9 C 14.19 g/m*3 24.9 C 4.8 km/h
250 18-08-2012 20:45:00 24.7 C 14.26 g/m*3 24.7 C 6.4 km/h
Sensor: Nr:Datum:Temp:Abs-Feuchte:Windchill:Wind:
Aussen-T/F 251 18-08-2012 20:50:00 24.5 C 14.1 g/m*3 24.5 C 4.8 km/h
252 18-08-2012 20:55:00 24.3 C 13.94 g/m*3 24.3 C 4.8 km/h
253 18-08-2012 21:00:00 24.2 C 14.3 g/m*3 24.2 C 4.8 km/h
254 18-08-2012 21:05:00 24.1 C 14 g/m*3 24.1 C 4.8 km/h
255 18-08-2012 21:10:00 24 C 14.36 g/m*3 24 C 3.2 km/h
256 18-08-2012 21:15:00 23.9 C 13.85 g/m*3 23.9 C 4.8 km/h
257 18-08-2012 21:20:00 23.8 C 13.98 g/m*3 23.8 C 4.8 km/h
258 18-08-2012 21:25:00 23.8 C 13.55 g/m*3 23.8 C 4.8 km/h
259 18-08-2012 21:30:00 23.9 C 13.85 g/m*3 23.9 C 4.8 km/h
260 18-08-2012 21:35:00 23.8 C 13.98 g/m*3 23.8 C 4.8 km/h
261 18-08-2012 21:40:00 23.7 C 14.12 g/m*3 23.7 C 4.8 km/h
262 18-08-2012 21:45:00 23.6 C 13.82 g/m*3 23.6 C 4.8 km/h
263 18-08-2012 21:50:00 23.6 C 14.04 g/m*3 23.6 C 4.8 km/h
264 18-08-2012 21:55:00 23.5 C 13.96 g/m*3 23.5 C 3.2 km/h
265 18-08-2012 22:00:00 23.4 C 14.09 g/m*3 23.4 C 4.8 km/h
266 18-08-2012 22:05:00 23.3 C 14.22 g/m*3 23.3 C 3.2 km/h
267 18-08-2012 22:10:00 23.2 C 14.14 g/m*3 23.2 C 3.2 km/h
268 18-08-2012 22:15:00 23.1 C 14.26 g/m*3 23.1 C 3.2 km/h
269 18-08-2012 22:20:00 23 C 13.98 g/m*3 23 C 3.2 km/h
270 18-08-2012 22:25:00 22.9 C 14.1 g/m*3 22.9 C 4.8 km/h
271 18-08-2012 22:30:00 22.8 C 14.22 g/m*3 22.8 C 3.2 km/h
272 18-08-2012 22:35:00 22.7 C 14.14 g/m*3 22.7 C 3.2 km/h
273 18-08-2012 22:40:00 22.6 C 14.26 g/m*3 22.6 C 1.6 km/h
274 18-08-2012 22:45:00 22.4 C 14.1 g/m*3 22.4 C 3.2 km/h
275 18-08-2012 22:50:00 22.4 C 14.1 g/m*3 22.4 C 3.2 km/h
Sensor: Nr:Datum:Temp:Abs-Feuchte:Windchill:Wind:
Aussen-T/F 276 18-08-2012 22:55:00 22.3 C 14.22 g/m*3 22.3 C 3.2 km/h
277 18-08-2012 23:00:00 22.2 C 14.14 g/m*3 22.2 C 3.2 km/h
278 18-08-2012 23:05:00 22.1 C 14.05 g/m*3 22.1 C 3.2 km/h
279 18-08-2012 23:10:00 21.9 C 14.28 g/m*3 21.9 C 0 km/h
280 18-08-2012 23:15:00 21.8 C 14.2 g/m*3 21.8 C 0 km/h
281 18-08-2012 23:20:00 21.7 C 14.31 g/m*3 21.7 C 1.6 km/h
282 18-08-2012 23:25:00 21.6 C 14.22 g/m*3 21.6 C 1.6 km/h
283 18-08-2012 23:30:00 21.5 C 14.14 g/m*3 21.5 C 1.6 km/h
284 18-08-2012 23:35:00 21.3 C 13.98 g/m*3 21.3 C 0 km/h
285 18-08-2012 23:40:00 21.2 C 14.08 g/m*3 21.2 C 1.6 km/h
286 18-08-2012 23:45:00 21.2 C 14.08 g/m*3 21.2 C 0 km/h
287 18-08-2012 23:50:00 21.1 C 14 g/m*3 21.1 C 0 km/h
288 18-08-2012 23:55:00 21 C 13.92 g/m*3 21 C 1.6 km/h

Legende:
   Min
   Max


Maximal/Minimal-Werte vom 18.08.2012 - 18.08.2012

Sensor Min Max Avg
Temp
(Aussen-T/F)
14.4 °C
18-08-2012  06:45:00
34.7 °C
18-08-2012  17:45:00
23.01 °C
Abs-Feuchte
(Aussen-T/F)
11.37 g/m*3
18-08-2012  06:45:00
15.29 g/m*3
18-08-2012  11:15:00
12.93 g/m*3
Windchill
(Aussen-T/F)
14.4 C
18-08-2012  06:45:00
34.7 C
18-08-2012  17:45:00
22.93 C

Die Daten stammen von einer Davis Vantage Pro 2 Wetter-Station und werden unter Linux mit der Software wview2wettercgi und aufbereitet. Alle Angaben erfolgen ohne Gewähr für ihre Vollständigkeit oder Richtigkeit.
Kontakt: Rainer Krienke krienke@uni-koblenz.de . Meine Webseiten an der Uni Koblenz oder privat.
Version: $Revision: 0.78 $